createdAt,value
2022-09-14T00:01:29.674Z,11.30
2022-09-14T00:04:00.498Z,12.48
2022-09-14T00:06:30.480Z,12.23
2022-09-14T00:09:00.723Z,15.98
2022-09-14T00:11:30.522Z,15.10
2022-09-14T00:13:59.315Z,13.18
2022-09-14T00:16:29.802Z,12.40
2022-09-14T00:19:00.283Z,10.70
2022-09-14T00:21:29.627Z,12.45
2022-09-14T00:23:57.372Z,12.10
2022-09-14T00:26:25.781Z,12.15
2022-09-14T00:29:04.241Z,10.45
2022-09-14T00:31:33.820Z,12.25
2022-09-14T00:34:02.234Z,9.85
2022-09-14T00:36:33.802Z,12.15
2022-09-14T00:39:01.723Z,12.50
2022-09-14T00:41:32.862Z,10.02
2022-09-14T00:44:03.168Z,11.68
2022-09-14T00:46:33.009Z,14.45
2022-09-14T00:49:02.987Z,14.27
2022-09-14T00:51:34.733Z,11.70
2022-09-14T00:54:03.110Z,10.93
2022-09-14T00:56:31.621Z,11.48
2022-09-14T00:59:02.775Z,11.05
2022-09-14T01:01:30.666Z,12.80
2022-09-14T01:03:58.438Z,12.15
2022-09-14T01:06:36.906Z,13.38
2022-09-14T01:09:14.102Z,11.38
2022-09-14T01:11:56.410Z,11.60
2022-09-14T01:14:32.974Z,10.65
2022-09-14T01:17:08.183Z,13.07
2022-09-14T01:20:11.064Z,12.57
2022-09-14T01:22:47.599Z,13.98
2022-09-14T01:25:37.553Z,13.50
2022-09-14T01:28:11.276Z,13.45
2022-09-14T01:30:42.410Z,12.38
2022-09-14T01:33:16.037Z,10.95
2022-09-14T01:35:50.214Z,12.02
2022-09-14T01:38:22.363Z,10.27
2022-09-14T01:40:52.386Z,12.88
2022-09-14T01:43:25.923Z,17.10
2022-09-14T01:45:58.643Z,15.10
2022-09-14T01:48:35.561Z,13.23
2022-09-14T01:51:09.374Z,12.75
2022-09-14T01:53:41.095Z,18.20
2022-09-14T01:56:15.802Z,14.80
2022-09-14T01:58:49.027Z,15.60
2022-09-14T02:01:25.846Z,13.23
2022-09-14T02:03:59.187Z,14.90
2022-09-14T02:06:36.284Z,13.43
2022-09-14T02:09:06.276Z,18.05
2022-09-14T02:11:34.009Z,13.70
2022-09-14T02:14:03.321Z,14.68
2022-09-14T02:16:31.477Z,15.38
2022-09-14T02:19:01.600Z,15.23
2022-09-14T02:21:31.844Z,14.32
2022-09-14T02:24:01.199Z,15.88
2022-09-14T02:26:30.169Z,12.40
2022-09-14T02:28:58.492Z,15.63
2022-09-14T02:31:38.686Z,13.93
2022-09-14T02:34:12.893Z,14.77
2022-09-14T02:36:49.541Z,13.63
2022-09-14T02:39:28.063Z,12.70
2022-09-14T02:42:05.775Z,11.85
2022-09-14T02:44:42.455Z,13.93
2022-09-14T02:47:18.103Z,12.73
2022-09-14T02:49:53.207Z,14.77
2022-09-14T02:52:28.409Z,14.02
2022-09-14T02:55:01.656Z,13.30
2022-09-14T02:57:29.366Z,19.25
2022-09-14T02:59:57.065Z,19.10
2022-09-14T03:02:26.281Z,16.27
2022-09-14T03:04:54.048Z,16.00
2022-09-14T03:07:21.902Z,15.98
2022-09-14T03:09:49.719Z,16.60
2022-09-14T03:12:18.277Z,18.67
2022-09-14T03:14:45.990Z,18.50
2022-09-14T03:17:13.750Z,19.92
2022-09-14T03:19:42.801Z,17.15
2022-09-14T03:22:10.556Z,15.48
2022-09-14T03:24:38.279Z,15.40
2022-09-14T03:27:06.055Z,18.27
2022-09-14T03:29:33.799Z,16.00
2022-09-14T03:32:03.075Z,16.13
2022-09-14T03:34:30.965Z,14.23
2022-09-14T03:36:59.965Z,16.15
2022-09-14T03:39:28.809Z,19.08
2022-09-14T03:41:56.509Z,16.73
2022-09-14T03:44:24.317Z,19.55
2022-09-14T03:46:52.052Z,22.55
2022-09-14T03:49:19.828Z,19.20
2022-09-14T03:51:47.561Z,20.63
2022-09-14T03:54:16.703Z,23.33
2022-09-14T03:56:44.416Z,22.52
2022-09-14T03:59:12.440Z,26.20
2022-09-14T04:01:40.521Z,20.17
2022-09-14T04:04:08.289Z,23.58
2022-09-14T04:06:36.000Z,22.52
2022-09-14T04:09:03.789Z,20.67
2022-09-14T04:11:34.773Z,20.33
2022-09-14T04:14:03.891Z,22.52
2022-09-14T04:16:32.370Z,18.70
2022-09-14T04:19:00.203Z,21.77
2022-09-14T04:21:28.037Z,22.48
2022-09-14T04:24:13.872Z,18.63
2022-09-14T04:26:44.641Z,16.55
2022-09-14T04:29:14.572Z,26.25
2022-09-14T04:31:42.662Z,27.00
2022-09-14T04:34:12.359Z,25.08
2022-09-14T04:36:40.342Z,19.38
2022-09-14T04:39:09.181Z,20.02
2022-09-14T04:41:36.897Z,19.33
2022-09-14T04:44:05.979Z,20.20
2022-09-14T04:46:35.906Z,17.80
2022-09-14T04:49:04.311Z,18.10
2022-09-14T04:51:33.191Z,23.17
2022-09-14T04:54:02.771Z,16.02
2022-09-14T04:56:33.385Z,21.52
2022-09-14T04:59:04.194Z,20.40
2022-09-14T05:01:34.936Z,19.25
2022-09-14T05:04:03.439Z,17.25
2022-09-14T05:06:33.398Z,16.02
2022-09-14T05:09:02.660Z,17.42
2022-09-14T05:11:33.283Z,21.10
2022-09-14T05:14:02.206Z,17.15
2022-09-14T05:16:31.603Z,23.90
2022-09-14T05:19:02.292Z,16.58
2022-09-14T05:21:31.276Z,18.73
2022-09-14T05:24:00.765Z,18.15
2022-09-14T05:26:29.794Z,19.10
2022-09-14T05:28:59.314Z,19.83
2022-09-14T05:31:28.850Z,24.77
2022-09-14T05:33:56.813Z,18.77
2022-09-14T05:36:26.431Z,17.13
2022-09-14T05:38:54.263Z,19.02
2022-09-14T05:41:22.003Z,15.73
2022-09-14T05:43:49.760Z,16.55
2022-09-14T05:46:20.258Z,17.38
2022-09-14T05:48:51.314Z,16.65
2022-09-14T05:51:21.252Z,16.48
2022-09-14T05:53:51.448Z,15.93
2022-09-14T05:56:20.814Z,17.00
2022-09-14T05:58:49.360Z,18.63
2022-09-14T06:01:19.192Z,14.88
2022-09-14T06:03:48.552Z,22.17
2022-09-14T06:06:18.823Z,19.92
2022-09-14T06:08:50.162Z,19.27
2022-09-14T06:11:21.652Z,17.02
2022-09-14T06:13:49.913Z,18.10
2022-09-14T06:16:20.105Z,19.65
2022-09-14T06:18:49.407Z,19.25
2022-09-14T06:21:19.876Z,22.95
2022-09-14T06:23:48.972Z,18.08
2022-09-14T06:26:18.884Z,25.40
2022-09-14T06:28:46.664Z,25.25
2022-09-14T06:31:15.658Z,25.17
2022-09-14T06:33:47.812Z,35.63
2022-09-14T06:36:19.571Z,14.27
2022-09-14T06:38:48.933Z,16.58
2022-09-14T06:41:20.389Z,15.80
2022-09-14T06:43:49.068Z,29.48
2022-09-14T06:46:19.861Z,19.50
2022-09-14T06:48:49.679Z,22.63
2022-09-14T06:51:19.520Z,20.48
2022-09-14T06:53:48.506Z,18.23
2022-09-14T06:56:16.965Z,24.17
2022-09-14T06:58:46.381Z,20.83
2022-09-14T07:01:15.874Z,25.35
2022-09-14T07:03:45.014Z,26.50
2022-09-14T07:06:15.043Z,21.30
2022-09-14T07:08:42.813Z,22.15
2022-09-14T07:11:12.920Z,23.67
2022-09-14T07:13:41.169Z,28.50
2022-09-14T07:16:10.659Z,30.83
2022-09-14T07:18:38.830Z,28.55
2022-09-14T07:21:08.477Z,30.77
2022-09-14T07:23:38.187Z,28.88
2022-09-14T07:26:08.297Z,37.15
2022-09-14T07:28:37.801Z,33.10
2022-09-14T07:31:07.146Z,33.70
2022-09-14T07:33:36.292Z,33.25
2022-09-14T07:36:07.475Z,37.47
2022-09-14T07:38:51.788Z,29.95
2022-09-14T07:41:21.179Z,32.60
2022-09-14T07:43:50.220Z,38.40
2022-09-14T07:46:18.169Z,35.30
2022-09-14T07:48:48.021Z,31.58
2022-09-14T07:51:16.633Z,29.95
2022-09-14T07:53:45.544Z,35.47
2022-09-14T07:56:16.741Z,35.88
2022-09-14T07:58:44.993Z,32.28
2022-09-14T08:01:15.046Z,28.83
2022-09-14T08:03:44.453Z,29.48
2022-09-14T08:06:16.123Z,29.00
2022-09-14T08:08:45.693Z,33.17
2022-09-14T08:11:15.654Z,30.17
2022-09-14T08:13:45.919Z,29.58
2022-09-14T08:16:14.496Z,33.15
2022-09-14T08:18:42.628Z,29.35
2022-09-14T08:21:14.506Z,28.70
2022-09-14T08:23:43.074Z,30.95
2022-09-14T08:26:13.549Z,25.65
2022-09-14T08:28:41.986Z,27.08
2022-09-14T08:31:11.810Z,25.92
2022-09-14T08:33:41.089Z,30.80
2022-09-14T08:36:10.290Z,29.17
2022-09-14T08:38:39.830Z,28.83
2022-09-14T08:41:13.158Z,25.40
2022-09-14T08:43:41.057Z,29.35
2022-09-14T08:46:15.671Z,25.58
2022-09-14T08:48:49.177Z,26.60
2022-09-14T08:51:18.227Z,28.70
2022-09-14T08:53:47.462Z,23.92
2022-09-14T08:56:18.744Z,24.48
2022-09-14T08:58:59.431Z,27.90
2022-09-14T09:01:40.735Z,25.98
2022-09-14T09:04:24.246Z,25.67
2022-09-14T09:06:59.017Z,25.23
2022-09-14T09:09:34.612Z,24.55
2022-09-14T09:12:03.173Z,22.75
2022-09-14T09:14:35.070Z,26.23
2022-09-14T09:17:06.045Z,24.98
2022-09-14T09:19:39.380Z,22.77
2022-09-14T09:22:15.026Z,22.67
2022-09-14T09:24:48.795Z,25.23
2022-09-14T09:27:17.897Z,20.85
2022-09-14T09:29:46.028Z,17.42
2022-09-14T09:32:18.053Z,17.60
2022-09-14T09:34:52.098Z,18.75
2022-09-14T09:37:39.960Z,16.25
2022-09-14T09:40:16.447Z,26.10
2022-09-14T09:43:12.809Z,15.70
2022-09-14T09:45:54.580Z,17.00
2022-09-14T09:48:25.922Z,19.48
2022-09-14T09:51:02.178Z,19.85
2022-09-14T09:53:30.230Z,18.77
2022-09-14T09:55:59.419Z,23.77
2022-09-14T09:58:31.565Z,19.77
2022-09-14T10:01:01.618Z,18.92
2022-09-14T10:03:32.728Z,18.08
2022-09-14T10:06:03.134Z,16.10
2022-09-14T10:08:35.065Z,16.30
2022-09-14T10:11:04.893Z,17.42
2022-09-14T10:13:38.684Z,15.50
2022-09-14T10:16:16.909Z,15.55
2022-09-14T10:18:49.139Z,17.63
2022-09-14T10:21:18.765Z,21.83
2022-09-14T10:23:46.879Z,20.52
2022-09-14T10:26:35.253Z,20.70
2022-09-14T10:29:30.607Z,21.63
2022-09-14T10:32:05.089Z,23.13
2022-09-14T10:34:33.572Z,28.70
2022-09-14T10:37:14.712Z,29.35
2022-09-14T10:39:49.651Z,27.88
2022-09-14T10:42:30.059Z,25.88
2022-09-14T10:45:14.620Z,32.78
2022-09-14T10:48:00.351Z,29.20
2022-09-14T10:50:41.071Z,28.25
2022-09-14T10:53:23.601Z,19.58
2022-09-14T10:56:01.778Z,20.67
2022-09-14T10:58:57.926Z,34.65
2022-09-14T11:01:37.710Z,17.38
2022-09-14T11:04:19.549Z,27.38
2022-09-14T11:06:55.306Z,18.17
2022-09-14T11:09:26.786Z,17.50
2022-09-14T11:12:06.813Z,18.55
2022-09-14T11:15:04.543Z,16.88
2022-09-14T11:18:06.779Z,15.00
2022-09-14T11:20:43.814Z,17.33
2022-09-14T11:23:34.801Z,17.33
2022-09-14T11:26:08.867Z,18.48
2022-09-14T11:28:42.259Z,18.30
2022-09-14T11:31:21.897Z,17.98
2022-09-14T11:33:57.002Z,19.00
2022-09-14T11:36:27.279Z,23.10
2022-09-14T11:39:04.685Z,22.90
2022-09-14T11:41:40.314Z,22.48
2022-09-14T11:44:14.344Z,16.92
2022-09-14T11:46:47.801Z,21.20
2022-09-14T11:49:20.719Z,17.27
2022-09-14T11:51:53.052Z,17.17
2022-09-14T11:54:23.068Z,18.65
2022-09-14T11:56:55.785Z,18.55
2022-09-14T11:59:50.674Z,19.42
2022-09-14T12:02:51.899Z,20.00
2022-09-14T12:05:33.315Z,15.10
2022-09-14T12:08:04.341Z,15.43
2022-09-14T12:10:32.666Z,18.27
2022-09-14T12:13:21.071Z,16.13
2022-09-14T12:15:49.050Z,16.15
2022-09-14T12:18:28.179Z,16.60
2022-09-14T12:21:09.225Z,20.55
2022-09-14T12:23:46.172Z,20.58
2022-09-14T12:26:29.444Z,24.52
2022-09-14T12:29:02.295Z,20.08
2022-09-14T12:31:36.063Z,19.50
2022-09-14T12:34:25.636Z,16.80
2022-09-14T12:37:19.970Z,14.32
2022-09-14T12:40:14.333Z,14.23
2022-09-14T12:42:42.080Z,14.30
2022-09-14T12:45:47.182Z,18.92
2022-09-14T12:48:55.853Z,15.05
2022-09-14T12:51:35.367Z,12.25
2022-09-14T12:54:18.092Z,14.93
2022-09-14T12:56:59.894Z,12.85
2022-09-14T12:59:34.644Z,11.80
2022-09-14T13:02:28.396Z,13.43
2022-09-14T13:04:59.780Z,14.23
2022-09-14T13:07:33.046Z,14.38
2022-09-14T13:10:04.702Z,11.75
2022-09-14T13:12:38.172Z,12.18
2022-09-14T13:15:09.064Z,12.32
2022-09-14T13:17:36.909Z,12.60
2022-09-14T13:20:17.978Z,9.50
2022-09-14T13:22:45.704Z,12.40
2022-09-14T13:25:28.225Z,13.38
2022-09-14T13:27:57.393Z,14.52
2022-09-14T13:30:27.137Z,11.40
2022-09-14T13:32:58.196Z,11.02
2022-09-14T13:35:31.516Z,10.38
2022-09-14T13:38:01.345Z,12.43
2022-09-14T13:40:31.298Z,11.43
2022-09-14T13:43:00.663Z,11.75
2022-09-14T13:45:28.727Z,12.27
2022-09-14T13:47:57.040Z,12.57
2022-09-14T13:50:25.625Z,12.20
2022-09-14T13:53:03.537Z,13.40
2022-09-14T13:55:45.137Z,13.52
2022-09-14T13:58:22.335Z,11.73
2022-09-14T14:00:59.126Z,12.50
2022-09-14T14:03:31.909Z,13.45
2022-09-14T14:06:00.958Z,10.48
2022-09-14T14:08:35.180Z,10.48
2022-09-14T14:11:07.887Z,9.40
2022-09-14T14:13:37.539Z,9.30
2022-09-14T14:16:19.070Z,9.45
2022-09-14T14:18:54.990Z,13.50
2022-09-14T14:21:31.744Z,11.23
2022-09-14T14:24:27.832Z,12.65
2022-09-14T14:26:58.797Z,11.20
2022-09-14T14:29:26.881Z,13.18
2022-09-14T14:31:56.914Z,10.32
2022-09-14T14:34:27.235Z,9.98
2022-09-14T14:36:55.549Z,9.20
2022-09-14T14:39:26.487Z,9.45
2022-09-14T14:41:54.993Z,9.40
2022-09-14T14:44:28.197Z,11.13
2022-09-14T14:46:56.325Z,9.13
2022-09-14T14:49:24.225Z,8.63
2022-09-14T14:51:52.205Z,8.10
2022-09-14T14:54:20.236Z,9.20
2022-09-14T14:56:49.455Z,10.25
2022-09-14T14:59:29.429Z,10.20
2022-09-14T15:01:58.090Z,9.02
2022-09-14T15:04:26.411Z,8.93
2022-09-14T15:06:54.331Z,12.70
2022-09-14T15:09:23.994Z,11.05
2022-09-14T15:11:53.499Z,10.77
2022-09-14T15:14:26.714Z,9.60
2022-09-14T15:17:00.086Z,11.60
2022-09-14T15:19:28.706Z,9.27
2022-09-14T15:22:00.997Z,11.85
2022-09-14T15:24:30.380Z,11.02
2022-09-14T15:26:59.506Z,12.40
2022-09-14T15:29:27.283Z,13.05
2022-09-14T15:31:56.743Z,12.68
2022-09-14T15:34:24.795Z,13.48
2022-09-14T15:36:54.505Z,14.68
2022-09-14T15:39:27.552Z,13.18
2022-09-14T15:41:55.824Z,11.80
2022-09-14T15:44:24.031Z,13.05
2022-09-14T15:46:52.751Z,11.40
2022-09-14T15:49:23.766Z,13.55
2022-09-14T15:51:54.045Z,15.80
2022-09-14T15:54:23.961Z,19.10
2022-09-14T15:56:54.952Z,20.65
2022-09-14T15:59:23.539Z,17.88
2022-09-14T16:01:52.045Z,16.60
2022-09-14T16:04:20.279Z,17.13
2022-09-14T16:06:49.734Z,12.38
2022-09-14T16:09:20.426Z,12.55
2022-09-14T16:11:48.577Z,11.70
2022-09-14T16:14:16.362Z,12.52
2022-09-14T16:16:44.326Z,11.80
2022-09-14T16:19:14.357Z,10.98
2022-09-14T16:21:43.397Z,11.77
2022-09-14T16:24:15.272Z,12.70
2022-09-14T16:26:43.979Z,11.75
2022-09-14T16:29:13.530Z,11.50
2022-09-14T16:31:43.347Z,11.70
2022-09-14T16:34:13.783Z,13.05
2022-09-14T16:36:42.441Z,13.13
2022-09-14T16:39:14.054Z,11.88
2022-09-14T16:41:42.285Z,12.50
2022-09-14T16:44:13.941Z,11.15
2022-09-14T16:46:42.074Z,10.43
2022-09-14T16:49:10.177Z,10.45
2022-09-14T16:51:38.527Z,14.30
2022-09-14T16:54:06.968Z,14.40
2022-09-14T16:56:38.278Z,19.80
2022-09-14T16:59:07.457Z,16.50
2022-09-14T17:01:37.426Z,18.95
2022-09-14T17:04:09.550Z,17.27
2022-09-14T17:06:39.304Z,13.25
2022-09-14T17:09:09.328Z,26.67
2022-09-14T17:11:40.343Z,19.55
2022-09-14T17:14:09.010Z,17.00
2022-09-14T17:16:37.117Z,15.32
2022-09-14T17:19:05.815Z,18.77
2022-09-14T17:21:36.373Z,16.30
2022-09-14T17:24:05.383Z,18.77
2022-09-14T17:26:33.738Z,17.60
2022-09-14T17:29:04.489Z,16.33
2022-09-14T17:31:35.495Z,18.92
2022-09-14T17:34:05.983Z,17.17
2022-09-14T17:36:34.321Z,17.55
2022-09-14T17:39:07.882Z,21.33
2022-09-14T17:41:39.116Z,20.40
2022-09-14T17:44:10.839Z,25.30
2022-09-14T17:46:48.274Z,21.90
2022-09-14T17:49:19.018Z,19.08
2022-09-14T17:51:46.808Z,21.48
2022-09-14T17:54:14.508Z,28.00
2022-09-14T17:56:42.530Z,21.35
2022-09-14T17:59:13.971Z,19.55
2022-09-14T18:01:42.002Z,21.52
2022-09-14T18:04:11.996Z,19.33
2022-09-14T18:06:42.009Z,23.35
2022-09-14T18:09:13.258Z,19.58
2022-09-14T18:11:41.369Z,20.13
2022-09-14T18:14:12.630Z,17.02
2022-09-14T18:16:43.045Z,16.42
2022-09-14T18:19:11.484Z,20.33
2022-09-14T18:21:39.396Z,17.45
2022-09-14T18:24:07.607Z,20.58
2022-09-14T18:26:35.436Z,24.95
2022-09-14T18:29:03.743Z,23.13
2022-09-14T18:31:31.955Z,24.05
2022-09-14T18:34:02.322Z,19.60
2022-09-14T18:36:31.059Z,23.05
2022-09-14T18:38:59.525Z,24.33
2022-09-14T18:41:29.127Z,25.90
2022-09-14T18:43:56.845Z,26.48
2022-09-14T18:46:28.138Z,28.90
2022-09-14T18:48:58.144Z,21.95
2022-09-14T18:51:28.256Z,24.38
2022-09-14T18:54:01.110Z,22.13
2022-09-14T18:56:29.732Z,19.25
2022-09-14T18:58:57.558Z,21.40
2022-09-14T19:01:26.062Z,20.58
2022-09-14T19:03:55.907Z,20.45
2022-09-14T19:06:24.058Z,20.70
2022-09-14T19:08:53.233Z,20.73
2022-09-14T19:11:22.662Z,22.75
2022-09-14T19:13:55.548Z,25.63
2022-09-14T19:16:23.351Z,19.73
2022-09-14T19:18:51.215Z,18.90
2022-09-14T19:21:23.445Z,20.27
2022-09-14T19:24:00.469Z,23.63
2022-09-14T19:26:30.526Z,24.40
2022-09-14T19:29:00.538Z,26.40
2022-09-14T19:31:30.510Z,23.20
2022-09-14T19:33:59.061Z,18.20
2022-09-14T19:36:27.626Z,20.98
2022-09-14T19:39:02.227Z,23.63
2022-09-14T19:41:31.319Z,24.15
2022-09-14T19:43:59.413Z,28.15
2022-09-14T19:46:29.023Z,27.65
2022-09-14T19:48:56.891Z,30.60
2022-09-14T19:51:26.682Z,29.70
2022-09-14T19:53:57.362Z,24.08
2022-09-14T19:56:27.243Z,21.02
2022-09-14T19:58:57.145Z,22.83
2022-09-14T20:01:26.521Z,23.73
2022-09-14T20:03:54.970Z,24.58
2022-09-14T20:06:25.520Z,31.33
2022-09-14T20:08:57.241Z,31.60
2022-09-14T20:11:28.136Z,29.88
2022-09-14T20:13:57.204Z,23.23
2022-09-14T20:16:27.984Z,23.58
2022-09-14T20:18:57.231Z,20.25
2022-09-14T20:21:26.331Z,24.95
2022-09-14T20:24:14.584Z,22.25
2022-09-14T20:26:45.460Z,21.85
2022-09-14T20:29:13.310Z,28.95
2022-09-14T20:31:41.379Z,23.90
2022-09-14T20:34:13.447Z,25.45
2022-09-14T20:36:50.675Z,23.23
2022-09-14T20:39:55.219Z,22.60
2022-09-14T20:42:18.445Z,21.33
2022-09-14T20:44:46.729Z,23.33
2022-09-14T20:47:15.904Z,25.25
2022-09-14T20:49:43.670Z,27.70
2022-09-14T20:52:16.634Z,23.80
2022-09-14T20:54:52.634Z,23.20
2022-09-14T20:57:24.547Z,20.20
2022-09-14T20:59:52.467Z,21.60
2022-09-14T21:02:20.363Z,22.35
2022-09-14T21:04:48.349Z,21.13
2022-09-14T21:07:16.451Z,19.02
2022-09-14T21:09:46.757Z,18.98
2022-09-14T21:12:15.234Z,18.60
2022-09-14T21:14:45.109Z,15.05
2022-09-14T21:17:12.989Z,15.88
2022-09-14T21:19:40.809Z,10.63
2022-09-14T21:22:08.528Z,9.60
2022-09-14T21:24:36.305Z,10.30
2022-09-14T21:27:04.789Z,11.23
2022-09-14T21:29:32.653Z,10.70
2022-09-14T21:32:06.809Z,8.88
2022-09-14T21:34:36.674Z,10.90
2022-09-14T21:37:12.900Z,7.53
2022-09-14T21:42:47.924Z,7.00
2022-09-14T21:45:16.363Z,13.85
2022-09-14T21:47:51.452Z,8.50
2022-09-14T21:50:19.287Z,4.10
2022-09-14T21:52:51.367Z,7.60
2022-09-14T21:55:21.451Z,7.07
2022-09-14T21:57:52.164Z,8.13
2022-09-14T22:00:20.134Z,6.72
2022-09-14T22:02:47.986Z,7.10
2022-09-14T22:05:17.262Z,7.15
2022-09-14T22:07:45.128Z,6.25
2022-09-14T22:10:12.859Z,8.73
2022-09-14T22:12:40.587Z,5.97
2022-09-14T22:15:10.016Z,6.03
2022-09-14T22:17:38.640Z,6.40
2022-09-14T22:20:07.311Z,6.57
2022-09-14T22:22:36.481Z,4.30
2022-09-14T22:25:05.956Z,7.15
2022-09-14T22:27:33.846Z,4.65
2022-09-14T22:30:01.774Z,6.30
2022-09-14T22:32:29.859Z,4.20
2022-09-14T22:34:57.680Z,2.63
2022-09-14T22:37:25.458Z,2.60
2022-09-14T22:39:54.926Z,2.70
2022-09-14T22:42:23.865Z,2.10
2022-09-14T22:44:51.615Z,2.88
2022-09-14T22:47:19.351Z,2.00
2022-09-14T22:49:47.386Z,2.25
2022-09-14T22:52:15.162Z,2.10
2022-09-14T22:54:42.870Z,3.35
2022-09-14T22:57:12.009Z,3.65
2022-09-14T22:59:39.886Z,2.97
2022-09-14T23:02:07.746Z,2.60
2022-09-14T23:04:35.766Z,3.10
2022-09-14T23:07:04.283Z,3.03
2022-09-14T23:09:32.075Z,3.58
2022-09-14T23:12:00.011Z,3.20
2022-09-14T23:14:29.288Z,3.05
2022-09-14T23:16:57.090Z,3.70
2022-09-14T23:19:24.949Z,2.88
2022-09-14T23:21:52.723Z,2.85
2022-09-14T23:24:20.562Z,3.30
2022-09-14T23:26:48.548Z,3.72
2022-09-14T23:29:17.881Z,3.75
2022-09-14T23:31:47.125Z,2.72
2022-09-14T23:34:15.303Z,3.10
2022-09-14T23:36:43.052Z,3.70
2022-09-14T23:39:10.788Z,2.42
2022-09-14T23:41:39.206Z,2.50
2022-09-14T23:44:07.100Z,7.43
2022-09-14T23:46:34.839Z,2.60
2022-09-14T23:49:04.016Z,2.70
2022-09-14T23:51:31.784Z,2.42
2022-09-14T23:53:59.559Z,2.38
2022-09-14T23:56:27.350Z,2.45
2022-09-14T23:58:55.144Z,3.42
